Time;durP1;ratioP1;P1;durP2;ratioP2;P2;SDS_P1;SDS_P2;PMS_P1;PMS_P2;Temp;Humidity;BMP_temperature;BMP_pressure;BME280_temperature;BME280_humidity;BME280_pressure;Samples;Min_cycle;Max_cycle;Signal;HPM_P1;HPM_P2
2023/03/21 00:00:43;;;;;;;14.30;10.50;;;10.80;1.00;;;;;;5003419;28;20471;-81
2023/03/21 00:03:10;;;;;;;12.90;9.73;;;10.80;1.00;;;;;;5000258;28;20491;-82
2023/03/21 00:05:40;;;;;;;12.03;9.73;;;10.70;1.00;;;;;;4999096;28;21297;-82
2023/03/21 00:08:09;;;;;;;14.50;10.10;;;10.50;1.00;;;;;;5001318;28;20495;-82
2023/03/21 00:10:37;;;;;;;13.87;9.47;;;10.40;1.00;;;;;;5004213;28;21319;-82
2023/03/21 00:13:04;;;;;;;14.37;9.23;;;10.30;1.00;;;;;;5004293;28;21235;-81
2023/03/21 00:15:31;;;;;;;15.27;11.17;;;10.20;1.00;;;;;;5003897;28;23265;-81
2023/03/21 00:18:02;;;;;;;13.40;9.30;;;10.20;1.00;;;;;;5007261;28;20478;-81
2023/03/21 00:20:29;;;;;;;12.93;9.30;;;10.20;1.00;;;;;;5002909;28;20444;-81
2023/03/21 00:22:58;;;;;;;15.10;10.13;;;10.20;1.00;;;;;;5001647;28;20607;-81
2023/03/21 00:25:25;;;;;;;16.53;10.23;;;10.20;1.00;;;;;;5003233;28;20468;-81
2023/03/21 00:27:53;;;;;;;16.67;9.60;;;10.20;1.00;;;;;;5005521;28;20966;-81
2023/03/21 00:30:20;;;;;;;11.47;9.10;;;10.20;1.00;;;;;;4998717;28;20568;-82
2023/03/21 00:32:47;;;;;;;15.00;9.00;;;10.20;1.00;;;;;;5001060;28;20459;-83
2023/03/21 00:35:14;;;;;;;10.73;8.00;;;10.20;1.00;;;;;;5003562;28;20471;-82
2023/03/21 00:37:41;;;;;;;16.20;9.00;;;10.30;1.00;;;;;;5005710;28;20459;-82
2023/03/21 00:40:10;;;;;;;12.00;8.30;;;10.30;1.00;;;;;;5006455;28;20466;-82
2023/03/21 00:42:37;;;;;;;14.73;9.33;;;10.30;1.00;;;;;;5001667;28;21211;-81
2023/03/21 00:45:09;;;;;;;12.60;8.83;;;10.30;1.00;;;;;;5001921;28;20511;-81
2023/03/21 00:47:36;;;;;;;14.30;9.10;;;10.30;1.00;;;;;;5003524;28;20550;-81
2023/03/21 00:50:04;;;;;;;15.30;9.73;;;10.30;1.00;;;;;;4999848;28;20505;-81
2023/03/21 00:52:30;;;;;;;13.87;9.50;;;10.30;1.00;;;;;;5000232;28;20461;-82
2023/03/21 00:54:57;;;;;;;12.07;8.70;;;10.40;1.00;;;;;;5002651;28;20541;-82
2023/03/21 00:57:24;;;;;;;12.20;8.60;;;10.50;1.00;;;;;;5006543;28;20486;-82
2023/03/21 00:59:52;;;;;;;13.80;9.30;;;10.50;1.00;;;;;;5007130;28;20510;-82
2023/03/21 01:02:21;;;;;;;14.00;8.83;;;10.50;1.00;;;;;;4998022;28;21247;-82
2023/03/21 01:04:50;;;;;;;13.60;9.13;;;10.60;1.00;;;;;;4998731;28;20476;-82
2023/03/21 01:07:17;;;;;;;12.40;10.00;;;10.60;1.00;;;;;;5003547;28;20532;-81
2023/03/21 01:09:44;;;;;;;14.50;9.40;;;10.50;1.00;;;;;;4998973;28;20484;-82
2023/03/21 01:12:11;;;;;;;13.30;10.70;;;10.40;1.00;;;;;;5002934;28;20560;-82
2023/03/21 01:14:38;;;;;;;15.80;10.37;;;10.40;1.00;;;;;;5005746;28;20554;-83
2023/03/21 01:17:05;;;;;;;13.77;9.90;;;10.30;1.00;;;;;;4998297;28;21293;-82
2023/03/21 01:19:34;;;;;;;14.70;10.23;;;10.30;1.00;;;;;;5004640;28;20454;-82
2023/03/21 01:22:01;;;;;;;13.70;9.83;;;10.20;1.00;;;;;;5002771;28;20620;-82
2023/03/21 01:24:29;;;;;;;15.20;10.60;;;10.20;1.00;;;;;;5003112;28;20490;-82
2023/03/21 01:26:56;;;;;;;15.10;11.20;;;10.20;1.00;;;;;;5000117;28;20920;-82
2023/03/21 01:29:23;;;;;;;15.80;12.07;;;10.30;1.00;;;;;;5001708;28;20484;-81
2023/03/21 01:31:49;;;;;;;16.07;13.30;;;10.20;1.00;;;;;;5003598;28;20467;-82
2023/03/21 01:34:17;;;;;;;16.17;12.87;;;10.10;1.00;;;;;;4999855;28;20931;-83
2023/03/21 01:36:46;;;;;;;18.60;13.90;;;10.00;1.00;;;;;;5001877;28;21287;-82
2023/03/21 01:39:14;;;;;;;18.13;14.40;;;9.70;1.00;;;;;;5005827;28;20556;-83
2023/03/21 01:41:42;;;;;;;20.80;16.57;;;9.60;1.00;;;;;;5002307;28;20446;-80
2023/03/21 01:44:15;;;;;;;23.00;16.03;;;9.50;1.00;;;;;;5004154;28;20473;-82
2023/03/21 01:46:45;;;;;;;23.00;16.70;;;9.40;1.00;;;;;;5007599;28;20521;-81
2023/03/21 01:49:16;;;;;;;20.00;15.93;;;9.30;1.00;;;;;;5004841;28;20504;-83
2023/03/21 01:51:48;;;;;;;18.80;15.77;;;9.30;1.00;;;;;;5005756;28;20545;-81
2023/03/21 01:54:23;;;;;;;21.63;16.83;;;9.30;1.00;;;;;;5002537;28;20462;-82
2023/03/21 01:56:53;;;;;;;23.27;17.70;;;9.40;1.00;;;;;;5006149;28;20464;-82
2023/03/21 01:59:25;;;;;;;25.50;18.90;;;9.40;1.00;;;;;;5003541;28;20481;-83
2023/03/21 02:01:52;;;;;;;23.63;19.03;;;9.40;1.00;;;;;;5001017;28;20966;-83
2023/03/21 02:04:27;;;;;;;21.40;18.17;;;9.40;1.00;;;;;;5000023;28;22181;-83
2023/03/21 02:06:59;;;;;;;20.30;18.00;;;9.50;1.00;;;;;;4993627;28;20473;-82
2023/03/21 02:09:30;;;;;;;22.93;19.47;;;9.60;1.00;;;;;;5000650;28;20458;-82
2023/03/21 02:11:58;;;;;;;27.87;23.00;;;9.70;1.00;;;;;;5003214;28;20479;-84
2023/03/21 02:14:25;;;;;;;24.50;21.90;;;9.70;1.00;;;;;;4998873;28;20526;-83
2023/03/21 02:17:01;;;;;;;27.70;23.17;;;9.70;1.00;;;;;;5006033;28;20557;-83
2023/03/21 02:20:14;;;;;;;26.93;23.43;;;9.80;1.00;;;;;;5004687;28;20532;-83
2023/03/21 02:23:09;;;;;;;29.40;23.60;;;9.80;1.00;;;;;;4987509;28;20516;-83
2023/03/21 02:26:03;;;;;;;27.10;23.47;;;9.90;1.00;;;;;;4998052;28;20450;-83
2023/03/21 02:28:34;;;;;;;26.60;23.57;;;9.90;1.00;;;;;;4999460;28;21599;-82
2023/03/21 02:31:17;;;;;;;27.87;24.20;;;10.00;1.00;;;;;;4999564;28;20505;-82
2023/03/21 02:34:15;;;;;;;28.07;22.63;;;9.90;1.00;;;;;;5002368;28;20565;-82
2023/03/21 02:36:56;;;;;;;26.83;24.03;;;9.90;1.00;;;;;;4997003;28;20466;-83
2023/03/21 02:39:29;;;;;;;28.33;25.17;;;9.90;1.00;;;;;;5002123;28;20471;-83
2023/03/21 02:42:03;;;;;;;30.40;26.27;;;9.80;1.00;;;;;;5003915;28;20486;-82
2023/03/21 02:44:37;;;;;;;30.50;25.70;;;9.80;1.00;;;;;;5004546;28;20492;-84
2023/03/21 02:47:10;;;;;;;28.90;24.70;;;9.70;1.00;;;;;;5005510;28;20468;-84
2023/03/21 02:49:43;;;;;;;32.70;26.70;;;9.80;1.00;;;;;;5009194;28;20446;-83
2023/03/21 02:52:17;;;;;;;30.07;26.90;;;9.80;1.00;;;;;;4999604;28;20446;-83
2023/03/21 02:54:47;;;;;;;29.03;25.40;;;9.80;1.00;;;;;;4976573;28;20496;-82
2023/03/21 02:57:16;;;;;;;29.57;26.07;;;9.70;1.00;;;;;;5003245;28;20517;-83
2023/03/21 02:59:44;;;;;;;30.87;26.33;;;9.70;1.00;;;;;;5006108;28;20540;-84
2023/03/21 03:02:11;;;;;;;28.60;25.70;;;9.70;1.00;;;;;;5003771;28;20510;-83
2023/03/21 03:04:38;;;;;;;27.23;24.20;;;9.80;1.00;;;;;;5005314;28;20568;-81
2023/03/21 03:07:27;;;;;;;30.90;26.97;;;9.70;1.00;;;;;;5000093;28;20549;-82
2023/03/21 03:10:11;;;;;;;29.20;24.30;;;9.80;1.00;;;;;;5002372;28;20586;-82
2023/03/21 03:12:49;;;;;;;33.07;25.03;;;9.80;1.00;;;;;;5003679;28;20502;-84
2023/03/21 03:15:27;;;;;;;30.17;25.73;;;9.70;1.00;;;;;;5001582;28;20466;-82
2023/03/21 03:18:00;;;;;;;29.63;24.50;;;9.80;1.00;;;;;;5003413;28;20843;-82
2023/03/21 03:20:38;;;;;;;29.73;25.07;;;9.90;1.00;;;;;;5009014;28;20521;-81
2023/03/21 03:23:15;;;;;;;30.17;26.07;;;9.90;1.00;;;;;;5007636;28;20489;-82
2023/03/21 03:25:47;;;;;;;28.20;24.40;;;9.90;1.00;;;;;;5007907;28;20896;-81
2023/03/21 03:28:18;;;;;;;31.13;24.27;;;9.90;1.00;;;;;;5003664;28;20498;-82
2023/03/21 03:30:47;;;;;;;33.17;25.83;;;9.90;1.00;;;;;;4997712;28;20530;-82
2023/03/21 03:33:16;;;;;;;28.40;24.50;;;9.90;1.00;;;;;;5001180;28;20578;-82
2023/03/21 03:35:44;;;;;;;29.07;23.37;;;9.80;1.00;;;;;;5002279;28;20474;-83
2023/03/21 03:38:13;;;;;;;27.90;23.97;;;9.80;1.00;;;;;;5000024;28;21329;-81
2023/03/21 03:40:44;;;;;;;32.00;25.47;;;9.80;1.00;;;;;;4999606;28;20576;-82
2023/03/21 03:43:15;;;;;;;33.00;26.10;;;9.70;1.00;;;;;;4999958;28;20493;-81
2023/03/21 03:45:47;;;;;;;31.23;25.23;;;9.70;1.00;;;;;;5005081;28;20463;-82
2023/03/21 03:48:24;;;;;;;35.23;26.50;;;9.70;1.00;;;;;;5004351;28;20506;-82
2023/03/21 03:50:54;;;;;;;34.73;27.37;;;9.60;1.00;;;;;;5001875;28;20557;-82
2023/03/21 03:53:26;;;;;;;31.47;25.77;;;9.60;1.00;;;;;;5002305;28;21328;-83
2023/03/21 03:55:57;;;;;;;30.33;25.87;;;9.60;1.00;;;;;;5006359;28;20446;-82
2023/03/21 03:58:26;;;;;;;33.80;27.50;;;9.60;1.00;;;;;;5002296;28;21317;-83
2023/03/21 04:00:54;;;;;;;29.83;25.43;;;9.60;1.00;;;;;;4997504;28;20612;-83
2023/03/21 04:03:22;;;;;;;34.37;28.73;;;9.60;1.00;;;;;;5006712;28;20579;-82
2023/03/21 04:05:49;;;;;;;33.50;25.10;;;9.60;1.00;;;;;;5002130;28;21196;-82
2023/03/21 04:08:18;;;;;;;33.90;26.30;;;9.60;1.00;;;;;;5000703;28;20482;-83
2023/03/21 04:10:46;;;;;;;32.83;26.50;;;9.60;1.00;;;;;;5002030;28;20474;-83
2023/03/21 04:13:13;;;;;;;32.43;26.57;;;9.60;1.00;;;;;;5000153;28;20600;-83
2023/03/21 04:15:41;;;;;;;30.57;24.10;;;9.60;1.00;;;;;;5001220;28;20941;-83
2023/03/21 04:18:08;;;;;;;33.30;26.27;;;9.40;1.00;;;;;;5006024;28;20506;-83
2023/03/21 04:20:35;;;;;;;34.00;26.93;;;9.40;1.00;;;;;;5004593;28;20422;-83
2023/03/21 04:23:02;;;;;;;34.20;27.27;;;9.50;1.00;;;;;;5000767;28;20530;-81
2023/03/21 04:25:29;;;;;;;35.40;26.13;;;9.50;1.00;;;;;;5002547;28;21109;-83
2023/03/21 04:27:58;;;;;;;35.27;27.30;;;9.50;1.00;;;;;;5003112;28;20466;-83
2023/03/21 04:30:25;;;;;;;35.73;25.47;;;9.50;1.00;;;;;;5001768;28;20508;-83
2023/03/21 04:32:55;;;;;;;33.80;26.10;;;9.50;1.00;;;;;;4999847;28;20483;-81
2023/03/21 04:35:24;;;;;;;32.10;26.23;;;9.50;1.00;;;;;;4984962;28;20930;-82
2023/03/21 04:37:52;;;;;;;34.77;24.93;;;9.60;1.00;;;;;;5002949;28;20462;-82
2023/03/21 04:40:20;;;;;;;33.40;26.23;;;9.60;1.00;;;;;;4979116;28;21467;-83
2023/03/21 04:42:49;;;;;;;32.80;25.50;;;9.50;1.00;;;;;;4987798;28;20496;-81
2023/03/21 04:45:20;;;;;;;38.67;27.97;;;9.50;1.00;;;;;;5001238;28;20544;-84
2023/03/21 04:47:47;;;;;;;34.90;26.00;;;9.50;1.00;;;;;;5000400;28;20516;-83
2023/03/21 04:50:15;;;;;;;35.27;28.10;;;9.50;1.00;;;;;;5006981;28;20442;-83
2023/03/21 04:52:42;;;;;;;35.90;27.13;;;9.50;1.00;;;;;;5001615;28;20470;-82
2023/03/21 04:55:10;;;;;;;34.87;26.60;;;9.40;1.00;;;;;;5003008;28;20586;-82
2023/03/21 04:57:37;;;;;;;33.30;24.50;;;9.40;1.00;;;;;;5000957;28;20466;-82
2023/03/21 05:00:09;;;;;;;31.50;24.57;;;9.40;1.00;;;;;;4999348;28;21257;-82
2023/03/21 05:02:39;;;;;;;31.87;24.60;;;9.50;1.00;;;;;;5003759;28;20529;-83
2023/03/21 05:05:10;;;;;;;35.27;26.03;;;9.50;1.00;;;;;;5005564;28;20466;-83
2023/03/21 05:07:39;;;;;;;33.80;25.80;;;9.50;1.00;;;;;;5002539;28;20482;-81
2023/03/21 05:10:08;;;;;;;30.87;25.63;;;9.50;1.00;;;;;;5006590;28;20465;-84
2023/03/21 05:12:35;;;;;;;34.17;26.37;;;9.40;1.00;;;;;;5008694;28;20478;-85
2023/03/21 05:15:02;;;;;;;32.60;25.23;;;9.40;1.00;;;;;;4989796;28;23348;-83
2023/03/21 05:17:29;;;;;;;34.70;27.07;;;9.40;1.00;;;;;;5005575;28;20481;-83
2023/03/21 05:19:58;;;;;;;35.23;26.00;;;9.40;1.00;;;;;;5003593;28;21152;-83
2023/03/21 05:22:27;;;;;;;34.67;25.47;;;9.50;1.00;;;;;;4981762;28;20481;-82
2023/03/21 05:24:56;;;;;;;35.50;28.37;;;9.60;1.00;;;;;;5002103;28;20497;-83
2023/03/21 05:27:34;;;;;;;31.90;24.87;;;9.60;1.00;;;;;;5000424;28;20491;-82
2023/03/21 05:30:05;;;;;;;34.50;26.60;;;9.60;1.00;;;;;;5004870;28;20495;-82
2023/03/21 05:32:32;;;;;;;36.27;25.97;;;9.60;1.00;;;;;;5006905;28;21386;-84
2023/03/21 05:35:01;;;;;;;33.97;25.90;;;9.60;1.00;;;;;;5000709;28;20434;-82
2023/03/21 05:37:29;;;;;;;34.43;25.03;;;9.60;1.00;;;;;;5003149;28;20465;-83
2023/03/21 05:39:56;;;;;;;37.80;27.47;;;9.60;1.00;;;;;;5006299;28;20537;-83
2023/03/21 05:42:23;;;;;;;34.90;26.03;;;9.60;1.00;;;;;;4996124;28;20475;-83
2023/03/21 05:44:52;;;;;;;36.57;26.53;;;9.60;1.00;;;;;;4993910;28;20466;-83
2023/03/21 05:47:20;;;;;;;39.33;26.13;;;9.60;1.00;;;;;;5001257;28;20596;-82
2023/03/21 05:49:47;;;;;;;33.20;25.13;;;9.50;1.00;;;;;;5001605;28;20566;-82
2023/03/21 05:52:15;;;;;;;33.20;25.83;;;9.50;1.00;;;;;;5000880;28;20536;-83
2023/03/21 05:54:42;;;;;;;36.13;26.00;;;9.50;1.00;;;;;;5007354;28;20458;-82
2023/03/21 05:57:10;;;;;;;33.90;25.60;;;9.50;1.00;;;;;;4999748;28;20806;-83
2023/03/21 05:59:37;;;;;;;35.57;23.83;;;9.50;1.00;;;;;;5001991;28;20496;-83
2023/03/21 06:02:07;;;;;;;31.83;24.43;;;9.60;1.00;;;;;;5006675;28;20471;-83
2023/03/21 06:04:34;;;;;;;34.80;25.53;;;9.50;1.00;;;;;;5010132;28;20454;-85
2023/03/21 06:07:01;;;;;;;34.50;23.60;;;9.60;1.00;;;;;;5008590;28;20559;-85
2023/03/21 06:09:30;;;;;;;34.63;24.50;;;9.70;1.00;;;;;;5007327;28;20414;-83
2023/03/21 06:11:58;;;;;;;33.60;25.00;;;9.60;1.00;;;;;;5006120;28;20548;-85
2023/03/21 06:14:28;;;;;;;32.83;24.27;;;9.70;1.00;;;;;;5005230;28;21235;-84
2023/03/21 06:16:55;;;;;;;36.50;25.87;;;9.80;1.00;;;;;;5010001;28;21294;-85
2023/03/21 06:19:22;;;;;;;36.00;25.90;;;9.90;1.00;;;;;;4984529;28;21226;-83
2023/03/21 06:21:52;;;;;;;35.97;25.80;;;9.90;1.00;;;;;;5004452;28;20470;-86
2023/03/21 06:24:19;;;;;;;40.30;26.03;;;10.00;1.00;;;;;;5002650;28;21282;-85
2023/03/21 06:26:47;;;;;;;31.40;22.83;;;10.00;1.00;;;;;;5006745;28;20462;-84
2023/03/21 06:29:15;;;;;;;34.87;24.77;;;9.90;1.00;;;;;;5008691;28;20954;-81
2023/03/21 06:31:42;;;;;;;33.93;24.77;;;10.00;1.00;;;;;;5011197;28;21168;-85
2023/03/21 06:34:10;;;;;;;33.90;25.30;;;9.90;1.00;;;;;;5005117;28;20560;-81
2023/03/21 06:36:38;;;;;;;32.33;24.03;;;9.90;1.00;;;;;;5001525;28;20513;-83
2023/03/21 06:39:06;;;;;;;36.97;26.63;;;9.90;1.00;;;;;;5003890;28;20566;-82
2023/03/21 06:41:33;;;;;;;34.07;25.20;;;9.90;1.00;;;;;;5008764;28;23022;-81
2023/03/21 06:44:05;;;;;;;36.63;25.63;;;9.80;1.00;;;;;;5008227;28;20481;-82
2023/03/21 06:46:32;;;;;;;34.70;25.03;;;9.80;1.00;;;;;;5011575;28;20627;-82
2023/03/21 06:49:00;;;;;;;37.73;26.30;;;9.80;1.00;;;;;;5011822;28;20593;-83
2023/03/21 06:51:28;;;;;;;37.10;25.70;;;9.80;1.00;;;;;;5010437;28;20493;-84
2023/03/21 06:53:55;;;;;;;39.83;26.30;;;9.80;1.00;;;;;;4990205;28;20520;-83
2023/03/21 06:56:24;;;;;;;36.83;26.47;;;9.80;1.00;;;;;;5008529;28;20453;-82
2023/03/21 06:58:51;;;;;;;38.23;25.13;;;9.80;1.00;;;;;;5015436;28;20469;-86
2023/03/21 07:01:19;;;;;;;33.37;25.80;;;9.90;1.00;;;;;;5011840;28;20482;-82
2023/03/21 07:03:47;;;;;;;34.13;25.03;;;9.90;1.00;;;;;;5002013;28;21407;-81
2023/03/21 07:06:15;;;;;;;37.50;26.10;;;10.00;1.00;;;;;;5007362;28;20468;-82
2023/03/21 07:08:42;;;;;;;36.13;25.87;;;10.00;1.00;;;;;;5010279;28;21209;-83
2023/03/21 07:11:12;;;;;;;31.30;24.80;;;10.00;1.00;;;;;;5008019;28;20511;-83
2023/03/21 07:13:39;;;;;;;39.90;27.30;;;9.90;1.00;;;;;;5004907;28;20439;-80
2023/03/21 07:16:09;;;;;;;43.50;28.10;;;9.80;1.00;;;;;;5008681;28;20607;-81
2023/03/21 07:18:38;;;;;;;41.80;26.50;;;9.90;1.00;;;;;;5002212;28;21206;-80
2023/03/21 07:21:07;;;;;;;47.43;27.07;;;9.80;1.00;;;;;;5008622;28;20489;-83
2023/03/21 07:23:34;;;;;;;39.70;26.93;;;9.80;1.00;;;;;;4993853;28;20531;-83
2023/03/21 07:26:05;;;;;;;34.13;25.73;;;9.60;1.00;;;;;;5010140;28;20474;-85
2023/03/21 07:28:33;;;;;;;36.43;27.40;;;9.50;1.00;;;;;;5008234;28;20565;-82
2023/03/21 07:31:11;;;;;;;38.10;28.73;;;9.50;1.00;;;;;;5008556;28;20529;-82
2023/03/21 07:33:42;;;;;;;38.90;28.30;;;9.50;1.00;;;;;;5005430;28;20466;-82
2023/03/21 07:36:12;;;;;;;43.50;29.13;;;9.50;1.00;;;;;;5007267;28;20475;-80
2023/03/21 07:38:42;;;;;;;38.40;28.47;;;9.50;1.00;;;;;;5005872;28;20482;-81
2023/03/21 07:41:10;;;;;;;40.77;28.47;;;9.60;1.00;;;;;;5006584;28;20482;-82
2023/03/21 07:43:40;;;;;;;41.47;27.87;;;9.70;1.00;;;;;;5008136;28;20470;-83
2023/03/21 07:46:07;;;;;;;42.07;29.13;;;9.70;1.00;;;;;;5005864;28;20426;-83
2023/03/21 07:48:34;;;;;;;41.43;29.97;;;9.70;1.00;;;;;;5009215;28;20443;-83
2023/03/21 07:51:05;;;;;;;36.43;27.00;;;9.70;1.00;;;;;;5003723;28;20495;-81
2023/03/21 07:53:32;;;;;;;41.60;29.00;;;9.60;1.00;;;;;;5003220;28;21191;-81
2023/03/21 07:55:59;;;;;;;38.37;28.60;;;9.60;1.00;;;;;;5006846;28;20530;-82
2023/03/21 07:58:27;;;;;;;39.30;27.93;;;9.50;1.00;;;;;;5005262;28;20445;-83
2023/03/21 08:00:55;;;;;;;39.17;29.00;;;9.60;1.00;;;;;;5008215;28;20586;-83
2023/03/21 08:03:25;;;;;;;44.00;28.67;;;9.60;1.00;;;;;;5008553;28;20450;-82
2023/03/21 08:05:52;;;;;;;38.77;29.00;;;9.70;1.00;;;;;;5005455;28;20463;-81
2023/03/21 08:08:21;;;;;;;43.30;27.53;;;9.70;1.00;;;;;;5008670;28;20462;-83
2023/03/21 08:10:48;;;;;;;40.00;28.03;;;9.80;1.00;;;;;;5010620;28;20470;-82
2023/03/21 08:13:14;;;;;;;37.50;26.50;;;9.90;1.00;;;;;;5006212;28;20555;-81
2023/03/21 08:15:42;;;;;;;35.80;25.40;;;10.00;1.00;;;;;;5004023;28;20462;-81
2023/03/21 08:18:10;;;;;;;38.70;27.87;;;10.00;1.00;;;;;;5004873;28;20462;-83
2023/03/21 08:20:37;;;;;;;40.07;28.50;;;10.00;1.00;;;;;;5008489;28;20458;-81
2023/03/21 08:23:04;;;;;;;38.73;25.87;;;10.00;1.00;;;;;;5009894;28;20500;-83
2023/03/21 08:25:33;;;;;;;36.43;26.50;;;10.00;1.00;;;;;;5005420;28;20904;-83
2023/03/21 08:28:05;;;;;;;38.40;28.40;;;10.00;1.00;;;;;;5017410;28;21091;-81
2023/03/21 08:30:35;;;;;;;39.03;24.80;;;10.00;1.00;;;;;;5006659;28;20489;-85
2023/03/21 08:33:02;;;;;;;39.10;27.50;;;10.10;1.00;;;;;;5009699;28;20454;-83
2023/03/21 08:35:30;;;;;;;37.60;26.80;;;10.20;1.00;;;;;;5005102;28;20478;-81
2023/03/21 08:37:57;;;;;;;36.83;27.03;;;10.30;1.00;;;;;;5007596;28;20510;-85
2023/03/21 08:40:27;;;;;;;36.40;26.17;;;10.30;1.00;;;;;;4996486;28;20698;-82
2023/03/21 08:42:56;;;;;;;36.10;25.70;;;10.20;1.00;;;;;;5002550;28;20492;-82
2023/03/21 08:45:24;;;;;;;40.77;27.43;;;10.10;1.00;;;;;;5000698;28;20561;-84
2023/03/21 08:47:53;;;;;;;37.97;26.47;;;10.20;1.00;;;;;;5008741;28;20467;-81
2023/03/21 08:50:22;;;;;;;33.43;23.50;;;10.40;1.00;;;;;;5001243;28;20593;-81
2023/03/21 08:52:50;;;;;;;36.53;26.50;;;10.40;1.00;;;;;;4990444;28;20955;-81
2023/03/21 08:55:19;;;;;;;31.43;23.77;;;10.50;1.00;;;;;;5007406;28;20545;-84
2023/03/21 08:57:49;;;;;;;32.60;21.80;;;10.50;1.00;;;;;;5004391;28;20466;-82
2023/03/21 09:00:19;;;;;;;37.17;25.20;;;10.50;1.00;;;;;;5007365;28;20504;-84
2023/03/21 09:02:50;;;;;;;32.10;23.30;;;10.50;1.00;;;;;;4998391;28;20459;-81
2023/03/21 09:05:17;;;;;;;33.83;24.93;;;10.60;1.00;;;;;;4995209;28;20467;-82
2023/03/21 09:07:46;;;;;;;31.93;23.33;;;10.60;1.00;;;;;;4996306;28;20634;-82
2023/03/21 09:10:18;;;;;;;38.07;25.10;;;10.70;1.00;;;;;;5001033;28;20588;-81
2023/03/21 09:12:46;;;;;;;33.70;23.80;;;10.80;1.00;;;;;;5001293;28;20458;-82
2023/03/21 09:15:13;;;;;;;33.77;22.80;;;10.90;1.00;;;;;;4985335;28;20548;-83
2023/03/21 09:17:43;;;;;;;32.43;23.00;;;10.80;1.00;;;;;;4989320;28;20462;-81
2023/03/21 09:20:17;;;;;;;28.30;21.40;;;10.80;1.00;;;;;;4996064;28;20577;-79
2023/03/21 09:22:45;;;;;;;29.20;22.80;;;10.70;1.00;;;;;;4997187;28;20450;-81
2023/03/21 09:25:12;;;;;;;31.87;21.40;;;10.60;1.00;;;;;;5000530;28;20470;-82
2023/03/21 09:27:39;;;;;;;32.90;21.70;;;10.70;1.00;;;;;;5009476;28;20466;-81
2023/03/21 09:30:10;;;;;;;34.50;21.93;;;10.80;1.00;;;;;;5006544;28;20519;-80
2023/03/21 09:32:37;;;;;;;34.33;22.70;;;10.80;1.00;;;;;;5003979;28;20500;-79
2023/03/21 09:35:11;;;;;;;31.20;23.37;;;10.90;1.00;;;;;;5009419;28;20504;-82
2023/03/21 09:37:41;;;;;;;31.90;23.03;;;11.00;1.00;;;;;;5005406;28;20453;-82
2023/03/21 09:40:16;;;;;;;29.00;19.97;;;11.20;1.00;;;;;;5009209;28;20474;-85
2023/03/21 09:42:51;;;;;;;32.20;23.07;;;11.30;1.00;;;;;;5009994;28;20946;-84
2023/03/21 09:45:23;;;;;;;34.63;23.47;;;11.00;1.00;;;;;;5014144;28;20514;-84
2023/03/21 09:47:53;;;;;;;34.80;25.63;;;10.90;1.00;;;;;;5010949;28;20492;-84
2023/03/21 09:50:26;;;;;;;30.97;21.70;;;10.80;1.00;;;;;;5010431;28;20547;-84
2023/03/21 09:52:58;;;;;;;34.50;24.10;;;10.70;1.00;;;;;;5003343;28;20573;-87
2023/03/21 09:55:35;;;;;;;38.30;24.63;;;10.70;1.00;;;;;;5001132;28;20617;-84
2023/03/21 09:58:11;;;;;;;31.20;23.80;;;10.80;1.00;;;;;;5011316;28;20459;-85
2023/03/21 10:00:42;;;;;;;34.30;24.30;;;11.10;1.00;;;;;;5011499;28;20524;-85
2023/03/21 10:03:23;;;;;;;34.87;25.23;;;11.20;1.00;;;;;;5014448;28;20515;-87
2023/03/21 10:05:58;;;;;;;34.27;24.50;;;11.30;1.00;;;;;;5011279;28;20925;-85
2023/03/21 10:41:01;;;;;;;35.50;26.40;;;11.80;1.00;;;;;;4800976;29;20931;-87
2023/03/21 10:43:36;;;;;;;28.27;21.07;;;11.70;1.00;;;;;;4857273;29;20323;-86
2023/03/21 10:46:08;;;;;;;29.70;21.00;;;11.60;1.00;;;;;;4932509;28;20441;-88
2023/03/21 10:48:37;;;;;;;30.30;22.70;;;11.90;1.00;;;;;;4956532;28;20505;-87
2023/03/21 10:51:07;;;;;;;29.27;22.67;;;12.20;1.00;;;;;;4949781;28;20480;-87
2023/03/21 10:53:38;;;;;;;29.20;21.07;;;12.30;1.00;;;;;;4965734;28;20460;-88
2023/03/21 10:56:10;;;;;;;27.07;21.33;;;12.40;1.00;;;;;;4962256;28;20741;-86
2023/03/21 10:58:43;;;;;;;29.57;21.97;;;12.50;1.00;;;;;;4969603;28;20576;-85
2023/03/21 11:01:14;;;;;;;32.23;22.83;;;12.40;1.00;;;;;;4974893;28;20427;-89
2023/03/21 11:03:45;;;;;;;26.40;19.37;;;12.10;1.00;;;;;;4994837;28;20608;-88
2023/03/21 11:06:16;;;;;;;26.20;19.40;;;11.90;1.00;;;;;;4986249;28;21028;-86
2023/03/21 11:08:47;;;;;;;29.70;20.73;;;12.00;1.00;;;;;;4982025;28;20562;-89
2023/03/21 11:11:26;;;;;;;28.53;18.80;;;11.90;1.00;;;;;;4983491;28;21282;-87
2023/03/21 11:13:58;;;;;;;27.27;18.80;;;12.00;1.00;;;;;;4986080;28;21294;-88
2023/03/21 11:16:30;;;;;;;27.10;19.50;;;12.10;1.00;;;;;;4986138;28;20547;-89
2023/03/21 11:19:00;;;;;;;26.63;18.20;;;12.10;1.00;;;;;;4986198;28;20665;-89
2023/03/21 11:21:28;;;;;;;26.63;20.03;;;12.30;1.00;;;;;;4983456;28;20571;-86
2023/03/21 11:23:56;;;;;;;28.87;20.87;;;12.30;1.00;;;;;;4983787;28;20476;-88
2023/03/21 11:26:31;;;;;;;29.10;21.23;;;12.30;1.00;;;;;;4986180;28;20480;-89
2023/03/21 11:28:58;;;;;;;24.63;18.43;;;12.40;1.00;;;;;;4989259;28;20470;-87
2023/03/21 11:31:38;;;;;;;24.37;18.80;;;12.40;1.00;;;;;;5000399;28;20460;-86
2023/03/21 11:34:07;;;;;;;25.00;18.83;;;12.50;1.00;;;;;;5014910;28;20498;-89
2023/03/21 11:36:41;;;;;;;30.07;17.90;;;12.60;1.00;;;;;;5009354;28;20467;-87
2023/03/21 11:39:27;;;;;;;22.43;17.10;;;12.80;1.00;;;;;;5012649;28;20480;-85
2023/03/21 11:41:56;;;;;;;26.53;19.07;;;12.70;1.00;;;;;;5013244;28;20433;-88
2023/03/21 11:44:29;;;;;;;21.53;17.00;;;12.60;1.00;;;;;;5016618;28;20458;-88
2023/03/21 11:46:56;;;;;;;24.90;18.03;;;12.60;1.00;;;;;;5013987;28;20547;-87
2023/03/21 11:49:25;;;;;;;25.10;17.53;;;12.80;1.00;;;;;;5009729;28;20502;-87
2023/03/21 11:52:12;;;;;;;26.00;18.20;;;12.80;1.00;;;;;;5011912;28;20460;-87
2023/03/21 11:55:01;;;;;;;27.33;20.07;;;12.90;1.00;;;;;;5005439;28;20547;-87
2023/03/21 11:57:37;;;;;;;33.90;19.90;;;13.00;1.00;;;;;;5010352;28;20493;-89
2023/03/21 12:00:13;;;;;;;23.80;17.33;;;13.10;1.00;;;;;;5007201;28;20566;-84
2023/03/21 12:03:07;;;;;;;24.00;18.33;;;13.20;1.00;;;;;;5003664;28;20528;-88
2023/03/21 12:05:36;;;;;;;27.10;17.70;;;13.40;1.00;;;;;;5009938;28;20461;-90
2023/03/21 12:08:13;;;;;;;22.67;17.70;;;13.50;1.00;;;;;;5010069;28;20575;-90
2023/03/21 12:10:46;;;;;;;23.63;17.43;;;13.50;1.00;;;;;;5005819;28;20475;-89
2023/03/21 12:13:42;;;;;;;25.70;19.23;;;13.50;1.00;;;;;;5004043;28;21049;-83
2023/03/21 12:16:54;;;;;;;24.33;16.77;;;13.30;1.00;;;;;;4982179;28;20533;-86
2023/03/21 12:20:33;;;;;;;26.40;18.23;;;12.90;1.00;;;;;;4979869;28;20487;-84
2023/03/21 12:23:47;;;;;;;22.20;18.03;;;12.80;1.00;;;;;;4980074;28;20477;-85
2023/03/21 12:26:23;;;;;;;23.90;17.23;;;12.80;1.00;;;;;;4996053;28;20504;-84
2023/03/21 12:29:17;;;;;;;21.33;16.10;;;13.10;1.00;;;;;;5001773;28;21100;-82
2023/03/21 12:32:07;;;;;;;27.80;17.97;;;13.20;1.00;;;;;;5005466;28;20546;-84
2023/03/21 12:35:03;;;;;;;22.33;16.60;;;13.00;1.00;;;;;;4999881;28;20458;-85
2023/03/21 12:37:37;;;;;;;23.37;16.90;;;13.10;1.00;;;;;;4986759;28;20430;-83
2023/03/21 12:40:13;;;;;;;29.10;17.03;;;13.10;1.00;;;;;;5004421;28;20474;-85
2023/03/21 12:42:57;;;;;;;24.57;19.17;;;13.00;1.00;;;;;;5004351;28;20481;-83
2023/03/21 12:45:31;;;;;;;26.77;19.83;;;12.90;1.00;;;;;;4979776;28;20478;-85
2023/03/21 12:48:18;;;;;;;24.23;19.40;;;12.90;1.00;;;;;;5002193;28;20487;-84
2023/03/21 12:50:57;;;;;;;26.87;18.47;;;12.80;1.00;;;;;;4996329;28;20470;-84
2023/03/21 12:53:45;;;;;;;24.77;18.90;;;12.90;1.00;;;;;;4990378;28;20546;-85
2023/03/21 12:56:18;;;;;;;25.50;18.40;;;12.90;1.00;;;;;;5002442;28;20866;-87
2023/03/21 12:58:50;;;;;;;24.17;16.80;;;13.10;1.00;;;;;;5001152;28;20444;-86
2023/03/21 13:01:23;;;;;;;24.33;16.20;;;13.30;1.00;;;;;;5005143;28;20459;-86
2023/03/21 13:04:42;;;;;;;21.60;16.10;;;13.30;1.00;;;;;;5008919;28;20468;-84
2023/03/21 13:07:27;;;;;;;23.53;15.57;;;13.50;1.00;;;;;;4942908;28;20922;-85
2023/03/21 13:09:56;;;;;;;21.07;15.93;;;13.50;1.00;;;;;;4946332;28;20431;-84
2023/03/21 13:12:56;;;;;;;22.70;17.10;;;13.40;1.00;;;;;;4986360;28;20473;-87
2023/03/21 13:15:54;;;;;;;20.63;17.17;;;13.50;1.00;;;;;;5007055;28;20477;-82
2023/03/21 13:18:50;;;;;;;20.03;15.10;;;13.80;1.00;;;;;;5004148;28;20572;-85
2023/03/21 13:21:29;;;;;;;24.50;16.43;;;13.90;1.00;;;;;;5006963;28;20475;-84
2023/03/21 13:24:02;;;;;;;19.40;15.73;;;13.90;1.00;;;;;;5006656;28;20476;-84
2023/03/21 13:26:40;;;;;;;20.27;15.50;;;14.00;1.00;;;;;;5004764;28;20467;-83
2023/03/21 13:29:28;;;;;;;18.60;14.23;;;13.90;1.00;;;;;;5008654;28;20615;-83
2023/03/21 13:32:10;;;;;;;19.10;14.03;;;13.80;1.00;;;;;;5004345;28;20513;-84
2023/03/21 13:34:50;;;;;;;19.23;14.63;;;13.90;1.00;;;;;;5006619;28;20544;-84
2023/03/21 13:37:24;;;;;;;18.27;13.67;;;13.70;1.00;;;;;;4992856;28;20465;-84
2023/03/21 13:39:52;;;;;;;18.20;14.20;;;13.70;1.00;;;;;;4978600;28;20574;-83